sensor_id;sensor_type;location;lat;lon;timestamp;pressure;altitude;pressure_sealevel;temperature
24714;BMP280;12820;51.580;5.010;2023-01-10T00:03:13;101295.84;;;7.77
24714;BMP280;12820;51.580;5.010;2023-01-10T00:08:15;101300.88;;;7.77
24714;BMP280;12820;51.580;5.010;2023-01-10T00:13:17;101298.38;;;7.77
24714;BMP280;12820;51.580;5.010;2023-01-10T00:18:25;101325.84;;;7.74
24714;BMP280;12820;51.580;5.010;2023-01-10T00:23:27;101330.84;;;7.74
24714;BMP280;12820;51.580;5.010;2023-01-10T00:28:29;101343.38;;;7.75
24714;BMP280;12820;51.580;5.010;2023-01-10T00:33:35;101340.91;;;7.80
24714;BMP280;12820;51.580;5.010;2023-01-10T00:38:37;101346.75;;;7.83
24714;BMP280;12820;51.580;5.010;2023-01-10T00:43:40;101357.59;;;7.83
24714;BMP280;12820;51.580;5.010;2023-01-10T00:49:00;101366.78;;;7.84
24714;BMP280;12820;51.580;5.010;2023-01-10T00:54:03;101375.09;;;7.83
24714;BMP280;12820;51.580;5.010;2023-01-10T00:59:05;101385.13;;;7.83
24714;BMP280;12820;51.580;5.010;2023-01-10T01:04:07;101375.16;;;7.86
24714;BMP280;12820;51.580;5.010;2023-01-10T01:09:10;101375.13;;;7.88
24714;BMP280;12820;51.580;5.010;2023-01-10T01:14:12;101411.03;;;7.91
24714;BMP280;12820;51.580;5.010;2023-01-10T01:19:14;101406.88;;;7.95
24714;BMP280;12820;51.580;5.010;2023-01-10T01:24:16;101407.75;;;7.98
24714;BMP280;12820;51.580;5.010;2023-01-10T01:29:18;101417.78;;;8.02
24714;BMP280;12820;51.580;5.010;2023-01-10T01:34:20;101417.81;;;8.05
24714;BMP280;12820;51.580;5.010;2023-01-10T01:39:23;101421.16;;;8.09
24714;BMP280;12820;51.580;5.010;2023-01-10T01:44:30;101425.34;;;8.10
24714;BMP280;12820;51.580;5.010;2023-01-10T01:49:37;101431.19;;;8.12
24714;BMP280;12820;51.580;5.010;2023-01-10T01:54:41;101429.53;;;8.14
24714;BMP280;12820;51.580;5.010;2023-01-10T01:59:44;101438.72;;;8.15
24714;BMP280;12820;51.580;5.010;2023-01-10T02:04:53;101442.91;;;8.16
24714;BMP280;12820;51.580;5.010;2023-01-10T02:10:10;101456.25;;;8.15
24714;BMP280;12820;51.580;5.010;2023-01-10T02:15:15;101455.41;;;8.17
24714;BMP280;12820;51.580;5.010;2023-01-10T02:20:19;101454.56;;;8.16
24714;BMP280;12820;51.580;5.010;2023-01-10T02:25:29;101455.44;;;8.16
24714;BMP280;12820;51.580;5.010;2023-01-10T02:41:28;101456.19;;;8.03
24714;BMP280;12820;51.580;5.010;2023-01-10T02:46:32;101463.69;;;8.01
24714;BMP280;12820;51.580;5.010;2023-01-10T02:51:34;101482.00;;;7.98
24714;BMP280;12820;51.580;5.010;2023-01-10T02:57:09;101485.34;;;7.97
24714;BMP280;12820;51.580;5.010;2023-01-10T03:07:36;101497.88;;;7.98
24714;BMP280;12820;51.580;5.010;2023-01-10T03:12:51;101499.56;;;8.02
24714;BMP280;12820;51.580;5.010;2023-01-10T03:17:59;101503.78;;;8.06
24714;BMP280;12820;51.580;5.010;2023-01-10T03:23:04;101507.94;;;8.07
24714;BMP280;12820;51.580;5.010;2023-01-10T03:28:14;101512.97;;;8.08
24714;BMP280;12820;51.580;5.010;2023-01-10T03:33:21;101518.78;;;8.06
24714;BMP280;12820;51.580;5.010;2023-01-10T03:38:29;101524.59;;;8.00
24714;BMP280;12820;51.580;5.010;2023-01-10T03:49:05;101534.50;;;7.93
24714;BMP280;12820;51.580;5.010;2023-01-10T03:54:07;101548.66;;;7.88
24714;BMP280;12820;51.580;5.010;2023-01-10T03:59:10;101552.78;;;7.83
24714;BMP280;12820;51.580;5.010;2023-01-10T04:04:12;101564.41;;;7.79
24714;BMP280;12820;51.580;5.010;2023-01-10T04:09:14;101570.22;;;7.75
24714;BMP280;12820;51.580;5.010;2023-01-10T04:14:16;101576.03;;;7.74
24714;BMP280;12820;51.580;5.010;2023-01-10T04:19:18;101574.41;;;7.73
24714;BMP280;12820;51.580;5.010;2023-01-10T04:24:20;101576.88;;;7.71
24714;BMP280;12820;51.580;5.010;2023-01-10T04:29:23;101567.66;;;7.69
24714;BMP280;12820;51.580;5.010;2023-01-10T04:34:25;101572.66;;;7.66
24714;BMP280;12820;51.580;5.010;2023-01-10T04:39:27;101614.28;;;7.61
24714;BMP280;12820;51.580;5.010;2023-01-10T04:44:29;101610.13;;;7.59
24714;BMP280;12820;51.580;5.010;2023-01-10T04:49:31;101584.22;;;7.55
24714;BMP280;12820;51.580;5.010;2023-01-10T04:54:33;101604.25;;;7.57
24714;BMP280;12820;51.580;5.010;2023-01-10T04:59:35;101617.59;;;7.57
24714;BMP280;12820;51.580;5.010;2023-01-10T05:04:37;101626.78;;;7.58
24714;BMP280;12820;51.580;5.010;2023-01-10T05:09:39;101648.47;;;7.61
24714;BMP280;12820;51.580;5.010;2023-01-10T05:14:41;101648.53;;;7.66
24714;BMP280;12820;51.580;5.010;2023-01-10T05:19:43;101655.25;;;7.70
24714;BMP280;12820;51.580;5.010;2023-01-10T05:24:45;101654.47;;;7.73
24714;BMP280;12820;51.580;5.010;2023-01-10T05:29:47;101646.13;;;7.75
24714;BMP280;12820;51.580;5.010;2023-01-10T05:34:49;101648.63;;;7.75
24714;BMP280;12820;51.580;5.010;2023-01-10T05:39:51;101664.50;;;7.76
24714;BMP280;12820;51.580;5.010;2023-01-10T05:44:53;101673.66;;;7.78
24714;BMP280;12820;51.580;5.010;2023-01-10T05:49:55;101677.88;;;7.80
24714;BMP280;12820;51.580;5.010;2023-01-10T05:54:58;101687.09;;;7.84
24714;BMP280;12820;51.580;5.010;2023-01-10T06:00:00;101702.13;;;7.86
24714;BMP280;12820;51.580;5.010;2023-01-10T06:05:12;101702.97;;;7.86
24714;BMP280;12820;51.580;5.010;2023-01-10T06:10:14;101703.81;;;7.87
24714;BMP280;12820;51.580;5.010;2023-01-10T06:15:16;101702.97;;;7.86
24714;BMP280;12820;51.580;5.010;2023-01-10T06:20:19;101708.81;;;7.85
24714;BMP280;12820;51.580;5.010;2023-01-10T06:25:21;101716.28;;;7.82
24714;BMP280;12820;51.580;5.010;2023-01-10T06:30:23;101702.84;;;7.75
24714;BMP280;12820;51.580;5.010;2023-01-10T06:35:25;101691.94;;;7.70
24714;BMP280;12820;51.580;5.010;2023-01-10T06:40:27;101710.22;;;7.64
24714;BMP280;12820;51.580;5.010;2023-01-10T06:45:30;101711.84;;;7.61
24714;BMP280;12820;51.580;5.010;2023-01-10T06:50:32;101732.69;;;7.60
24714;BMP280;12820;51.580;5.010;2023-01-10T06:55:34;101736.06;;;7.62
24714;BMP280;12820;51.580;5.010;2023-01-10T07:00:36;101738.59;;;7.63
24714;BMP280;12820;51.580;5.010;2023-01-10T07:05:39;101746.09;;;7.65
24714;BMP280;12820;51.580;5.010;2023-01-10T07:10:41;101761.16;;;7.68
24714;BMP280;12820;51.580;5.010;2023-01-10T07:15:44;101767.03;;;7.71
24714;BMP280;12820;51.580;5.010;2023-01-10T07:20:46;101777.06;;;7.73
24714;BMP280;12820;51.580;5.010;2023-01-10T07:25:48;101799.59;;;7.76
24714;BMP280;12820;51.580;5.010;2023-01-10T07:30:50;101796.28;;;7.77
24714;BMP280;12820;51.580;5.010;2023-01-10T07:35:52;101802.09;;;7.76
24714;BMP280;12820;51.580;5.010;2023-01-10T07:40:54;101813.78;;;7.75
24714;BMP280;12820;51.580;5.010;2023-01-10T07:46:01;101816.31;;;7.77
24714;BMP280;12820;51.580;5.010;2023-01-10T07:51:04;101816.31;;;7.77
24714;BMP280;12820;51.580;5.010;2023-01-10T07:56:06;101817.16;;;7.79
24714;BMP280;12820;51.580;5.010;2023-01-10T08:01:09;101811.34;;;7.80
24714;BMP280;12820;51.580;5.010;2023-01-10T08:06:11;101801.31;;;7.80
24714;BMP280;12820;51.580;5.010;2023-01-10T08:11:16;101808.84;;;7.81
24714;BMP280;12820;51.580;5.010;2023-01-10T08:16:18;101818.03;;;7.80
24714;BMP280;12820;51.580;5.010;2023-01-10T08:21:21;101817.19;;;7.80
24714;BMP280;12820;51.580;5.010;2023-01-10T08:26:23;101830.53;;;7.80
24714;BMP280;12820;51.580;5.010;2023-01-10T08:31:26;101821.38;;;7.81
24714;BMP280;12820;51.580;5.010;2023-01-10T08:36:28;101808.91;;;7.85
24714;BMP280;12820;51.580;5.010;2023-01-10T08:41:31;101806.47;;;7.90
24714;BMP280;12820;51.580;5.010;2023-01-10T08:46:33;101813.19;;;7.95
24714;BMP280;12820;51.580;5.010;2023-01-10T08:51:35;101812.47;;;8.00
24714;BMP280;12820;51.580;5.010;2023-01-10T08:56:38;101807.47;;;8.03
24714;BMP280;12820;51.580;5.010;2023-01-10T09:01:41;101811.69;;;8.06
24714;BMP280;12820;51.580;5.010;2023-01-10T09:06:43;101806.72;;;8.12
24714;BMP280;12820;51.580;5.010;2023-01-10T09:11:45;101812.63;;;8.15
24714;BMP280;12820;51.580;5.010;2023-01-10T09:16:48;101794.28;;;8.17
24714;BMP280;12820;51.580;5.010;2023-01-10T09:21:52;101808.50;;;8.21
24714;BMP280;12820;51.580;5.010;2023-01-10T09:26:54;101796.88;;;8.26
24714;BMP280;12820;51.580;5.010;2023-01-10T09:31:57;101800.28;;;8.31
24714;BMP280;12820;51.580;5.010;2023-01-10T09:36:59;101787.81;;;8.37
24714;BMP280;12820;51.580;5.010;2023-01-10T09:47:24;101795.47;;;8.54
24714;BMP280;12820;51.580;5.010;2023-01-10T09:52:30;101788.06;;;8.62
24714;BMP280;12820;51.580;5.010;2023-01-10T09:57:34;101789.75;;;8.69
24714;BMP280;12820;51.580;5.010;2023-01-10T10:02:40;101777.31;;;8.76
24714;BMP280;12820;51.580;5.010;2023-01-10T10:07:44;101781.53;;;8.84
24714;BMP280;12820;51.580;5.010;2023-01-10T10:13:35;101778.28;;;8.91
24714;BMP280;12820;51.580;5.010;2023-01-10T10:19:18;101770.78;;;8.98
24714;BMP280;12820;51.580;5.010;2023-01-10T10:24:22;101758.31;;;9.07
24714;BMP280;12820;51.580;5.010;2023-01-10T10:29:52;101739.16;;;9.15
24714;BMP280;12820;51.580;5.010;2023-01-10T10:40:27;101738.41;;;9.35
24714;BMP280;12820;51.580;5.010;2023-01-10T10:45:35;101721.72;;;9.44
24714;BMP280;12820;51.580;5.010;2023-01-10T10:56:10;101713.44;;;9.62
24714;BMP280;12820;51.580;5.010;2023-01-10T11:01:15;101695.88;;;9.74
24714;BMP280;12820;51.580;5.010;2023-01-10T11:06:18;101689.25;;;9.82
24714;BMP280;12820;51.580;5.010;2023-01-10T11:11:26;101669.16;;;9.88
24714;BMP280;12820;51.580;5.010;2023-01-10T11:16:29;101676.72;;;9.96
24714;BMP280;12820;51.580;5.010;2023-01-10T11:21:32;101667.50;;;10.01
24714;BMP280;12820;51.580;5.010;2023-01-10T11:26:36;101666.69;;;10.07
24714;BMP280;12820;51.580;5.010;2023-01-10T11:31:41;101662.53;;;10.10
24714;BMP280;12820;51.580;5.010;2023-01-10T11:41:55;101660.84;;;10.24
24714;BMP280;12820;51.580;5.010;2023-01-10T11:47:03;101649.13;;;10.24
24714;BMP280;12820;51.580;5.010;2023-01-10T11:52:15;101649.09;;;10.26
24714;BMP280;12820;51.580;5.010;2023-01-10T11:57:25;101642.44;;;10.28
24714;BMP280;12820;51.580;5.010;2023-01-10T12:02:30;101631.53;;;10.24
24714;BMP280;12820;51.580;5.010;2023-01-10T12:07:59;101620.66;;;10.22
24714;BMP280;12820;51.580;5.010;2023-01-10T12:13:13;101610.63;;;10.19
24714;BMP280;12820;51.580;5.010;2023-01-10T12:18:16;101601.38;;;10.20
24714;BMP280;12820;51.580;5.010;2023-01-10T12:23:21;101587.13;;;10.20
24714;BMP280;12820;51.580;5.010;2023-01-10T12:28:27;101572.06;;;10.22
24714;BMP280;12820;51.580;5.010;2023-01-10T12:33:34;101565.38;;;10.24
24714;BMP280;12820;51.580;5.010;2023-01-10T12:38:39;101559.50;;;10.28
24714;BMP280;12820;51.580;5.010;2023-01-10T12:44:04;101554.50;;;10.33
24714;BMP280;12820;51.580;5.010;2023-01-10T12:49:24;101559.50;;;10.36
24714;BMP280;12820;51.580;5.010;2023-01-10T12:54:28;101536.88;;;10.41
24714;BMP280;12820;51.580;5.010;2023-01-10T12:59:35;101526.78;;;10.45
24714;BMP280;12820;51.580;5.010;2023-01-10T13:04:39;101518.41;;;10.50
24714;BMP280;12820;51.580;5.010;2023-01-10T13:09:44;101505.81;;;10.56
24714;BMP280;12820;51.580;5.010;2023-01-10T13:25:35;101493.19;;;10.69
24714;BMP280;12820;51.580;5.010;2023-01-10T13:30:38;101486.50;;;10.68
24714;BMP280;12820;51.580;5.010;2023-01-10T13:35:44;101474.75;;;10.69
24714;BMP280;12820;51.580;5.010;2023-01-10T13:46:38;101483.13;;;10.69
24714;BMP280;12820;51.580;5.010;2023-01-10T13:52:26;101452.16;;;10.65
24714;BMP280;12820;51.580;5.010;2023-01-10T13:57:51;101442.97;;;10.61
24714;BMP280;12820;51.580;5.010;2023-01-10T14:02:54;101428.75;;;10.55
24714;BMP280;12820;51.580;5.010;2023-01-10T14:07:56;101416.22;;;10.51
24714;BMP280;12820;51.580;5.010;2023-01-10T14:13:05;101408.69;;;10.47
24714;BMP280;12820;51.580;5.010;2023-01-10T14:23:19;101369.38;;;10.35
24714;BMP280;12820;51.580;5.010;2023-01-10T14:28:29;101347.66;;;10.29
24714;BMP280;12820;51.580;5.010;2023-01-10T14:33:33;101337.63;;;10.20
24714;BMP280;12820;51.580;5.010;2023-01-10T14:38:37;101320.91;;;10.13
24714;BMP280;12820;51.580;5.010;2023-01-10T14:54:27;101307.63;;;9.94
24714;BMP280;12820;51.580;5.010;2023-01-10T14:59:32;101293.41;;;9.87
24714;BMP280;12820;51.580;5.010;2023-01-10T15:04:35;101284.25;;;9.80
24714;BMP280;12820;51.580;5.010;2023-01-10T15:09:37;101284.22;;;9.74
24714;BMP280;12820;51.580;5.010;2023-01-10T15:14:40;101282.56;;;9.70
24714;BMP280;12820;51.580;5.010;2023-01-10T15:19:43;101273.41;;;9.62
24714;BMP280;12820;51.580;5.010;2023-01-10T15:24:57;101261.72;;;9.57
24714;BMP280;12820;51.580;5.010;2023-01-10T15:29:59;101250.03;;;9.48
24714;BMP280;12820;51.580;5.010;2023-01-10T15:35:04;101241.69;;;9.46
24714;BMP280;12820;51.580;5.010;2023-01-10T15:40:19;101227.47;;;9.47
24714;BMP280;12820;51.580;5.010;2023-01-10T15:45:27;101207.41;;;9.41
24714;BMP280;12820;51.580;5.010;2023-01-10T15:50:35;101187.34;;;9.35
24714;BMP280;12820;51.580;5.010;2023-01-10T15:55:46;101169.84;;;9.26
24714;BMP280;12820;51.580;5.010;2023-01-10T16:00:51;101188.25;;;9.23
24714;BMP280;12820;51.580;5.010;2023-01-10T16:05:56;101199.13;;;9.19
24714;BMP280;12820;51.580;5.010;2023-01-10T16:11:04;101174.03;;;9.16
24714;BMP280;12820;51.580;5.010;2023-01-10T16:16:14;101169.91;;;9.13
24714;BMP280;12820;51.580;5.010;2023-01-10T16:21:18;101171.56;;;9.13
24714;BMP280;12820;51.580;5.010;2023-01-10T16:26:22;101178.25;;;9.09
24714;BMP280;12820;51.580;5.010;2023-01-10T16:31:25;101156.53;;;9.08
24714;BMP280;12820;51.580;5.010;2023-01-10T16:36:27;101154.88;;;9.07
24714;BMP280;12820;51.580;5.010;2023-01-10T16:41:29;101133.97;;;9.07
24714;BMP280;12820;51.580;5.010;2023-01-10T16:46:49;101144.84;;;9.07
24714;BMP280;12820;51.580;5.010;2023-01-10T16:51:53;101128.13;;;9.08
24714;BMP280;12820;51.580;5.010;2023-01-10T16:56:58;101128.94;;;9.07
24714;BMP280;12820;51.580;5.010;2023-01-10T17:02:00;101122.28;;;9.09
24714;BMP280;12820;51.580;5.010;2023-01-10T17:07:02;101126.44;;;9.08
24714;BMP280;12820;51.580;5.010;2023-01-10T17:12:06;101130.59;;;9.11
24714;BMP280;12820;51.580;5.010;2023-01-10T17:17:14;101127.25;;;9.12
24714;BMP280;12820;51.580;5.010;2023-01-10T17:22:17;101110.56;;;9.14
24714;BMP280;12820;51.580;5.010;2023-01-10T17:27:19;101105.50;;;9.17
24714;BMP280;12820;51.580;5.010;2023-01-10T17:32:22;101103.84;;;9.19
24714;BMP280;12820;51.580;5.010;2023-01-10T17:37:24;101092.94;;;9.21
24714;BMP280;12820;51.580;5.010;2023-01-10T17:42:26;101084.56;;;9.25
24714;BMP280;12820;51.580;5.010;2023-01-10T17:47:28;101082.88;;;9.30
24714;BMP280;12820;51.580;5.010;2023-01-10T17:52:30;101066.16;;;9.33
24714;BMP280;12820;51.580;5.010;2023-01-10T17:57:32;101058.59;;;9.36
24714;BMP280;12820;51.580;5.010;2023-01-10T18:02:38;101050.22;;;9.40
24714;BMP280;12820;51.580;5.010;2023-01-10T18:07:41;101039.31;;;9.44
24714;BMP280;12820;51.580;5.010;2023-01-10T18:12:43;101040.16;;;9.46
24714;BMP280;12820;51.580;5.010;2023-01-10T18:17:45;101020.84;;;9.54
24714;BMP280;12820;51.580;5.010;2023-01-10T18:22:47;101011.66;;;9.56
24714;BMP280;12820;51.580;5.010;2023-01-10T18:28:14;101020.81;;;9.58
24714;BMP280;12820;51.580;5.010;2023-01-10T18:33:17;101007.44;;;9.59
24714;BMP280;12820;51.580;5.010;2023-01-10T18:38:19;101000.72;;;9.61
24714;BMP280;12820;51.580;5.010;2023-01-10T18:43:21;100994.84;;;9.63
24714;BMP280;12820;51.580;5.010;2023-01-10T18:48:25;100988.16;;;9.65
24714;BMP280;12820;51.580;5.010;2023-01-10T18:53:27;100991.50;;;9.67
24714;BMP280;12820;51.580;5.010;2023-01-10T18:58:35;100986.44;;;9.70
24714;BMP280;12820;51.580;5.010;2023-01-10T19:03:38;100978.06;;;9.71
24714;BMP280;12820;51.580;5.010;2023-01-10T19:08:42;100973.84;;;9.75
24714;BMP280;12820;51.580;5.010;2023-01-10T19:13:45;100968.00;;;9.77
24714;BMP280;12820;51.580;5.010;2023-01-10T19:18:53;100975.50;;;9.81
24714;BMP280;12820;51.580;5.010;2023-01-10T19:23:59;100965.44;;;9.83
24714;BMP280;12820;51.580;5.010;2023-01-10T19:29:03;100958.72;;;9.86
24714;BMP280;12820;51.580;5.010;2023-01-10T19:34:05;100955.34;;;9.90
24714;BMP280;12820;51.580;5.010;2023-01-10T19:39:08;100946.91;;;9.94
24714;BMP280;12820;51.580;5.010;2023-01-10T19:44:15;100931.81;;;9.98
24714;BMP280;12820;51.580;5.010;2023-01-10T19:49:17;100928.41;;;10.02
24714;BMP280;12820;51.580;5.010;2023-01-10T19:54:20;100931.72;;;10.07
24714;BMP280;12820;51.580;5.010;2023-01-10T19:59:24;100912.41;;;10.12
24714;BMP280;12820;51.580;5.010;2023-01-10T20:04:27;100919.94;;;10.15
24714;BMP280;12820;51.580;5.010;2023-01-10T20:09:29;100917.38;;;10.19
24714;BMP280;12820;51.580;5.010;2023-01-10T20:14:34;100918.16;;;10.23
24714;BMP280;12820;51.580;5.010;2023-01-10T20:19:36;100913.91;;;10.28
24714;BMP280;12820;51.580;5.010;2023-01-10T20:24:38;100902.13;;;10.29
24714;BMP280;12820;51.580;5.010;2023-01-10T20:29:40;100887.03;;;10.34
24714;BMP280;12820;51.580;5.010;2023-01-10T20:34:46;100888.66;;;10.38
24714;BMP280;12820;51.580;5.010;2023-01-10T20:39:50;100886.09;;;10.41
24714;BMP280;12820;51.580;5.010;2023-01-10T20:44:53;100886.91;;;10.43
24714;BMP280;12820;51.580;5.010;2023-01-10T20:49:55;100886.03;;;10.48
24714;BMP280;12820;51.580;5.010;2023-01-10T20:54:57;100880.94;;;10.52
24714;BMP280;12820;51.580;5.010;2023-01-10T20:59:59;100868.31;;;10.54
24714;BMP280;12820;51.580;5.010;2023-01-10T21:05:01;100869.97;;;10.56
24714;BMP280;12820;51.580;5.010;2023-01-10T21:10:03;100853.22;;;10.57
24714;BMP280;12820;51.580;5.010;2023-01-10T21:15:06;100856.53;;;10.60
24714;BMP280;12820;51.580;5.010;2023-01-10T21:20:09;100846.47;;;10.62
24714;BMP280;12820;51.580;5.010;2023-01-10T21:25:12;100819.59;;;10.64
24714;BMP280;12820;51.580;5.010;2023-01-10T21:30:14;100840.50;;;10.67
24714;BMP280;12820;51.580;5.010;2023-01-10T21:35:17;100819.53;;;10.69
24714;BMP280;12820;51.580;5.010;2023-01-10T21:40:19;100820.28;;;10.73
24714;BMP280;12820;51.580;5.010;2023-01-10T21:45:21;100821.09;;;10.76
24714;BMP280;12820;51.580;5.010;2023-01-10T21:50:23;100810.13;;;10.80
24714;BMP280;12820;51.580;5.010;2023-01-10T21:55:25;100801.69;;;10.85
24714;BMP280;12820;51.580;5.010;2023-01-10T22:00:27;100787.38;;;10.89
24714;BMP280;12820;51.580;5.010;2023-01-10T22:05:30;100791.47;;;10.94
24714;BMP280;12820;51.580;5.010;2023-01-10T22:10:32;100789.72;;;10.99
24714;BMP280;12820;51.580;5.010;2023-01-10T22:15:34;100783.78;;;11.03
24714;BMP280;12820;51.580;5.010;2023-01-10T22:20:42;100782.84;;;11.07
24714;BMP280;12820;51.580;5.010;2023-01-10T22:25:44;100773.56;;;11.10
24714;BMP280;12820;51.580;5.010;2023-01-10T22:30:46;100769.34;;;11.14
24714;BMP280;12820;51.580;5.010;2023-01-10T22:35:49;100764.22;;;11.18
24714;BMP280;12820;51.580;5.010;2023-01-10T22:40:51;100765.00;;;11.21
24714;BMP280;12820;51.580;5.010;2023-01-10T22:45:53;100750.66;;;11.25
24714;BMP280;12820;51.580;5.010;2023-01-10T22:50:55;100747.31;;;11.27
24714;BMP280;12820;51.580;5.010;2023-01-10T22:56:02;100746.41;;;11.30
24714;BMP280;12820;51.580;5.010;2023-01-10T23:01:06;100721.22;;;11.33
24714;BMP280;12820;51.580;5.010;2023-01-10T23:06:08;100746.28;;;11.37
24714;BMP280;12820;51.580;5.010;2023-01-10T23:11:13;100740.34;;;11.39
24714;BMP280;12820;51.580;5.010;2023-01-10T23:16:19;100736.13;;;11.41
24714;BMP280;12820;51.580;5.010;2023-01-10T23:21:23;100731.00;;;11.47
24714;BMP280;12820;51.580;5.010;2023-01-10T23:26:25;100710.78;;;11.50
24714;BMP280;12820;51.580;5.010;2023-01-10T23:31:27;100701.44;;;11.56
24714;BMP280;12820;51.580;5.010;2023-01-10T23:36:30;100707.22;;;11.60
24714;BMP280;12820;51.580;5.010;2023-01-10T23:41:33;100715.53;;;11.65
24714;BMP280;12820;51.580;5.010;2023-01-10T23:46:35;100712.06;;;11.70
24714;BMP280;12820;51.580;5.010;2023-01-10T23:51:37;100713.66;;;11.74
24714;BMP280;12820;51.580;5.010;2023-01-10T23:56:39;100698.41;;;11.80
